Time;durP1;ratioP1;P1;durP2;ratioP2;P2;SDS_P1;SDS_P2;PMS_P1;PMS_P2;Temp;Humidity;BMP_temperature;BMP_pressure;BME280_temperature;BME280_humidity;BME280_pressure;Samples;Min_cycle;Max_cycle;Signal;HPM_P1;HPM_P2
2023/04/04 00:02:02;;;;;;;0.53;0.53;;;10.90;99.90;;;;;;4994376;28;20245;-96
2023/04/04 00:04:33;;;;;;;1.03;0.33;;;11.00;99.90;;;;;;5004729;28;20206;-96
2023/04/04 00:07:06;;;;;;;1.07;0.60;;;10.80;99.90;;;;;;5000823;28;20219;-96
2023/04/04 00:09:37;;;;;;;0.37;0.37;;;10.60;99.90;;;;;;4989658;28;20288;-96
2023/04/04 00:12:08;;;;;;;0.50;0.50;;;10.50;99.90;;;;;;5000405;28;20202;-95
2023/04/04 00:14:40;;;;;;;0.70;0.60;;;10.10;99.90;;;;;;5002559;28;20217;-96
2023/04/04 00:17:12;;;;;;;2.67;0.73;;;10.00;99.90;;;;;;5006454;28;20211;-94
2023/04/04 00:19:45;;;;;;;0.87;0.73;;;10.00;99.90;;;;;;4999457;28;20210;-96
2023/04/04 00:22:18;;;;;;;0.40;0.40;;;10.00;99.90;;;;;;4999062;28;20221;-94
2023/04/04 00:24:50;;;;;;;0.80;0.40;;;10.20;99.90;;;;;;4998628;28;20206;-95
2023/04/04 00:27:21;;;;;;;0.50;0.50;;;10.10;99.90;;;;;;4995012;28;20230;-91
2023/04/04 00:29:53;;;;;;;0.50;0.40;;;10.20;99.90;;;;;;4997199;28;20237;-95
2023/04/04 00:32:23;;;;;;;0.60;0.60;;;10.20;99.90;;;;;;4988573;28;20217;-94
2023/04/04 00:34:56;;;;;;;0.57;0.50;;;9.80;99.90;;;;;;4997528;28;20202;-94
2023/04/04 00:37:28;;;;;;;1.17;0.50;;;9.90;99.90;;;;;;4995329;28;20635;-93
2023/04/04 00:39:59;;;;;;;1.23;0.50;;;10.10;99.90;;;;;;4999237;28;20257;-94
2023/04/04 00:42:30;;;;;;;0.83;0.60;;;10.00;99.90;;;;;;4988135;28;20210;-94
2023/04/04 00:45:01;;;;;;;0.60;0.50;;;10.00;99.90;;;;;;4992790;28;20199;-91
2023/04/04 00:47:33;;;;;;;2.33;0.67;;;10.10;99.90;;;;;;4993536;28;20214;-93
2023/04/04 00:50:04;;;;;;;1.37;0.63;;;10.20;99.90;;;;;;4993321;28;20234;-96
2023/04/04 00:52:37;;;;;;;0.60;0.40;;;10.10;99.90;;;;;;4982960;28;20213;-94
2023/04/04 00:55:09;;;;;;;0.80;0.40;;;10.00;99.90;;;;;;4992736;28;20579;-95
2023/04/04 00:57:41;;;;;;;0.40;0.40;;;10.00;99.90;;;;;;4991739;28;20214;-96
2023/04/04 01:00:14;;;;;;;0.70;0.50;;;10.00;99.90;;;;;;4994919;28;20205;-96
2023/04/04 01:02:46;;;;;;;0.60;0.60;;;10.00;99.90;;;;;;5000084;28;20237;-96
2023/04/04 01:05:17;;;;;;;0.40;0.40;;;9.90;99.90;;;;;;4999184;28;20249;-96
2023/04/04 01:07:50;;;;;;;1.60;0.80;;;9.50;99.90;;;;;;4998500;28;20199;-96
2023/04/04 01:10:21;;;;;;;0.67;0.57;;;9.20;99.90;;;;;;4997276;28;20338;-96
2023/04/04 01:12:53;;;;;;;0.80;0.47;;;9.10;99.90;;;;;;4998999;28;20265;-95
2023/04/04 01:15:24;;;;;;;0.53;0.30;;;8.90;99.90;;;;;;4998808;28;20207;-94
2023/04/04 01:17:59;;;;;;;0.70;0.60;;;8.70;99.90;;;;;;4998523;28;20237;-96
2023/04/04 01:20:35;;;;;;;0.47;0.47;;;8.60;99.90;;;;;;4999392;28;20693;-95
2023/04/04 01:23:08;;;;;;;1.10;0.60;;;8.50;99.90;;;;;;4999827;28;20209;-96
2023/04/04 01:25:42;;;;;;;0.67;0.57;;;8.60;99.90;;;;;;5004277;28;20207;-92
2023/04/04 01:28:13;;;;;;;0.50;0.40;;;8.40;99.90;;;;;;5014756;28;20200;-93
2023/04/04 01:30:46;;;;;;;0.80;0.70;;;8.40;99.90;;;;;;5018398;28;20238;-95
2023/04/04 01:33:21;;;;;;;0.47;0.40;;;8.30;99.90;;;;;;4999669;28;20241;-94
2023/04/04 01:36:04;;;;;;;0.87;0.70;;;8.20;99.90;;;;;;4996154;28;20205;-94
2023/04/04 01:38:48;;;;;;;0.80;0.60;;;8.10;99.90;;;;;;4997365;28;20217;-94
2023/04/04 01:41:21;;;;;;;0.87;0.50;;;8.10;99.90;;;;;;4993732;28;20214;-93
2023/04/04 01:43:53;;;;;;;0.53;0.50;;;8.20;99.90;;;;;;4990748;28;20269;-94
2023/04/04 01:46:25;;;;;;;2.53;1.07;;;8.30;99.90;;;;;;4996891;28;20289;-95
2023/04/04 01:48:55;;;;;;;0.97;0.70;;;8.20;99.90;;;;;;5010436;28;20237;-94
2023/04/04 01:51:27;;;;;;;0.80;0.47;;;8.30;99.90;;;;;;5002385;28;20217;-93
2023/04/04 01:53:58;;;;;;;0.57;0.57;;;8.30;99.90;;;;;;4988586;28;20202;-96
2023/04/04 01:56:32;;;;;;;3.13;1.80;;;8.30;99.90;;;;;;4999631;28;20207;-96
2023/04/04 01:59:03;;;;;;;1.77;1.33;;;8.10;99.90;;;;;;4998906;28;20206;-95
2023/04/04 02:01:34;;;;;;;2.83;0.47;;;8.10;99.90;;;;;;4997903;28;20277;-95
2023/04/04 02:04:06;;;;;;;0.60;0.60;;;8.10;99.90;;;;;;4993276;28;20210;-93
2023/04/04 02:06:37;;;;;;;0.53;0.43;;;8.00;99.90;;;;;;4993011;28;20238;-94
2023/04/04 02:09:09;;;;;;;0.77;0.60;;;8.00;99.90;;;;;;5011765;28;20230;-93
2023/04/04 02:11:42;;;;;;;0.70;0.50;;;8.00;99.90;;;;;;5009477;28;20202;-93
2023/04/04 02:14:14;;;;;;;0.60;0.60;;;8.00;99.90;;;;;;5013446;28;20292;-94
2023/04/04 02:16:45;;;;;;;0.40;0.40;;;7.80;99.90;;;;;;5012541;28;20218;-94
2023/04/04 02:19:17;;;;;;;0.60;0.60;;;7.70;99.90;;;;;;5016363;28;20217;-94
2023/04/04 02:21:49;;;;;;;0.50;0.50;;;7.60;99.90;;;;;;5008874;28;20238;-92
2023/04/04 02:24:22;;;;;;;1.10;0.40;;;7.50;99.90;;;;;;4994109;28;20221;-94
2023/04/04 02:26:56;;;;;;;0.60;0.60;;;7.30;99.90;;;;;;4991025;28;20231;-93
2023/04/04 02:29:27;;;;;;;0.87;0.50;;;7.30;99.90;;;;;;4995011;28;20230;-92
2023/04/04 02:31:59;;;;;;;1.33;0.70;;;7.30;99.90;;;;;;4994849;28;20202;-93
2023/04/04 02:34:32;;;;;;;0.63;0.60;;;7.20;99.90;;;;;;5007410;28;20198;-92
2023/04/04 02:37:04;;;;;;;1.07;0.40;;;7.00;99.90;;;;;;5014022;28;20213;-93
2023/04/04 02:39:36;;;;;;;0.73;0.70;;;6.90;99.90;;;;;;5006439;28;20199;-93
2023/04/04 02:42:10;;;;;;;1.13;0.60;;;6.80;99.90;;;;;;5005127;28;20221;-93
2023/04/04 02:44:41;;;;;;;1.10;0.60;;;6.70;99.90;;;;;;5012764;28;20201;-93
2023/04/04 02:47:13;;;;;;;0.60;0.53;;;6.60;99.90;;;;;;5006888;28;20211;-90
2023/04/04 02:49:46;;;;;;;0.77;0.70;;;6.50;99.90;;;;;;4996094;28;20281;-91
2023/04/04 02:52:17;;;;;;;0.60;0.60;;;6.40;99.90;;;;;;4996150;28;20213;-93
2023/04/04 02:54:48;;;;;;;0.60;0.60;;;6.40;99.90;;;;;;4995953;28;20209;-92
2023/04/04 02:57:23;;;;;;;1.60;0.70;;;6.30;99.90;;;;;;5006849;28;20206;-94
2023/04/04 02:59:54;;;;;;;1.17;0.70;;;6.20;99.90;;;;;;5009653;28;20202;-92
2023/04/04 03:02:27;;;;;;;1.00;0.80;;;6.10;99.90;;;;;;4993937;28;20241;-92
2023/04/04 03:04:59;;;;;;;1.33;0.70;;;6.10;99.90;;;;;;4993887;28;20202;-93
2023/04/04 03:07:30;;;;;;;1.47;0.60;;;6.00;99.90;;;;;;4994465;28;20191;-93
2023/04/04 03:10:02;;;;;;;0.80;0.80;;;5.90;99.90;;;;;;5003492;28;20273;-93
2023/04/04 03:12:36;;;;;;;1.20;0.83;;;5.80;99.90;;;;;;4993270;28;20211;-94
2023/04/04 03:15:09;;;;;;;1.13;0.77;;;5.70;99.90;;;;;;4996700;28;20249;-93
2023/04/04 03:17:41;;;;;;;2.47;0.90;;;5.70;99.90;;;;;;4995889;28;20273;-94
2023/04/04 03:20:14;;;;;;;0.87;0.87;;;5.60;99.90;;;;;;4995290;28;20724;-94
2023/04/04 03:22:46;;;;;;;1.20;1.00;;;5.50;99.90;;;;;;4996221;28;20289;-92
2023/04/04 03:25:20;;;;;;;4.43;1.33;;;5.50;99.90;;;;;;4978215;28;20209;-92
2023/04/04 03:27:55;;;;;;;1.87;1.10;;;5.40;99.90;;;;;;4997670;28;20670;-94
2023/04/04 03:30:26;;;;;;;2.60;0.90;;;5.40;99.90;;;;;;4997996;28;20238;-94
2023/04/04 03:32:58;;;;;;;1.10;1.00;;;5.30;99.90;;;;;;4999204;28;20241;-92
2023/04/04 03:35:30;;;;;;;2.13;1.17;;;5.30;99.90;;;;;;5008890;28;20194;-92
2023/04/04 03:38:04;;;;;;;3.67;1.70;;;5.20;99.90;;;;;;5010930;28;20232;-93
2023/04/04 03:40:35;;;;;;;2.30;0.87;;;5.10;99.90;;;;;;5013913;28;20323;-93
2023/04/04 03:43:12;;;;;;;0.87;0.87;;;5.10;99.90;;;;;;5011274;28;20208;-93
2023/04/04 03:45:44;;;;;;;5.33;1.10;;;5.00;99.90;;;;;;5011888;28;20283;-91
2023/04/04 03:48:15;;;;;;;1.87;1.00;;;5.00;99.90;;;;;;5012908;28;20201;-90
2023/04/04 03:50:46;;;;;;;2.13;1.10;;;4.90;99.90;;;;;;5018278;28;20234;-91
2023/04/04 03:53:18;;;;;;;1.83;0.80;;;4.90;99.90;;;;;;5013709;28;20213;-90
2023/04/04 03:55:49;;;;;;;0.97;0.80;;;4.80;99.90;;;;;;5005041;28;20293;-92
2023/04/04 03:58:26;;;;;;;0.80;0.80;;;5.00;99.90;;;;;;5005786;28;20214;-92
2023/04/04 04:00:58;;;;;;;2.17;0.90;;;4.90;99.90;;;;;;4996292;28;20230;-92
2023/04/04 04:03:29;;;;;;;1.27;1.17;;;5.00;99.90;;;;;;4987977;28;20206;-91
2023/04/04 04:06:01;;;;;;;2.00;0.70;;;5.10;99.90;;;;;;4996538;28;20206;-93
2023/04/04 04:08:35;;;;;;;1.80;1.20;;;5.10;99.90;;;;;;4995708;28;20232;-93
2023/04/04 04:11:07;;;;;;;2.00;1.43;;;5.00;99.90;;;;;;4999744;28;20496;-93
2023/04/04 04:13:42;;;;;;;2.10;1.53;;;4.80;99.90;;;;;;4998476;28;20636;-93
2023/04/04 04:16:14;;;;;;;1.27;1.10;;;4.80;99.90;;;;;;4996053;28;20261;-92
2023/04/04 04:18:46;;;;;;;2.17;1.63;;;4.90;99.90;;;;;;4999626;28;20221;-92
2023/04/04 04:21:17;;;;;;;1.40;1.30;;;5.00;99.90;;;;;;5000016;28;20202;-93
2023/04/04 04:23:50;;;;;;;0.93;0.83;;;4.80;99.90;;;;;;4980807;28;20207;-93
2023/04/04 04:26:22;;;;;;;0.80;0.80;;;4.60;99.90;;;;;;4981747;28;20207;-93
2023/04/04 04:28:55;;;;;;;1.10;1.00;;;4.60;99.90;;;;;;4998966;28;20225;-93
2023/04/04 04:31:27;;;;;;;0.87;0.77;;;4.70;99.90;;;;;;5010560;28;20258;-94
2023/04/04 04:34:00;;;;;;;0.93;0.70;;;4.60;99.90;;;;;;5012355;28;20210;-93
2023/04/04 04:36:33;;;;;;;1.00;0.90;;;4.60;99.90;;;;;;5007295;28;20597;-93
2023/04/04 04:39:05;;;;;;;0.80;0.80;;;4.60;99.90;;;;;;5009074;28;20214;-91
2023/04/04 04:41:37;;;;;;;1.33;0.80;;;4.60;99.90;;;;;;5007960;28;20203;-91
2023/04/04 04:44:10;;;;;;;1.00;0.90;;;4.50;99.90;;;;;;5005440;28;20210;-91
2023/04/04 04:46:42;;;;;;;2.53;1.10;;;4.40;99.90;;;;;;5009655;28;20206;-88
2023/04/04 04:49:15;;;;;;;1.73;1.00;;;4.40;99.90;;;;;;5006750;28;20236;-91
2023/04/04 04:51:46;;;;;;;1.20;1.10;;;4.30;99.90;;;;;;5008297;28;20230;-92
2023/04/04 04:54:18;;;;;;;0.80;0.73;;;4.40;99.90;;;;;;4999414;28;20210;-89
2023/04/04 04:56:49;;;;;;;1.03;0.90;;;4.30;99.90;;;;;;4977897;28;20203;-91
2023/04/04 04:59:23;;;;;;;0.70;0.70;;;4.30;99.90;;;;;;4977634;28;20207;-92
2023/04/04 05:01:54;;;;;;;1.90;0.90;;;4.30;99.90;;;;;;4986167;28;20267;-91
2023/04/04 05:04:26;;;;;;;1.53;0.90;;;4.30;99.90;;;;;;4993341;28;20719;-92
2023/04/04 05:06:57;;;;;;;2.80;1.07;;;4.30;99.90;;;;;;4995439;28;20269;-91
2023/04/04 05:09:29;;;;;;;1.50;0.90;;;4.20;99.90;;;;;;4995784;28;20207;-93
2023/04/04 05:12:01;;;;;;;1.27;0.93;;;4.20;99.90;;;;;;4995838;28;20230;-92
2023/04/04 05:14:34;;;;;;;1.50;1.20;;;4.20;99.90;;;;;;4992422;28;20210;-93
2023/04/04 05:17:06;;;;;;;2.17;1.10;;;4.00;99.90;;;;;;4984718;28;20210;-93
2023/04/04 05:19:38;;;;;;;1.23;1.13;;;3.90;99.90;;;;;;4995830;28;20222;-93
2023/04/04 05:22:09;;;;;;;1.47;1.37;;;3.80;99.90;;;;;;4985242;28;20609;-92
2023/04/04 05:24:41;;;;;;;1.43;0.90;;;3.80;99.90;;;;;;4991506;28;20194;-91
2023/04/04 05:27:13;;;;;;;2.73;1.70;;;3.90;99.90;;;;;;4997979;28;20249;-92
2023/04/04 05:29:47;;;;;;;1.97;1.20;;;4.00;99.90;;;;;;4993623;28;20621;-93
2023/04/04 05:32:20;;;;;;;3.17;1.33;;;4.00;99.90;;;;;;4994175;28;20705;-92
2023/04/04 05:34:52;;;;;;;2.00;1.50;;;4.00;99.90;;;;;;5000963;28;20214;-92
2023/04/04 05:37:24;;;;;;;1.87;1.50;;;4.10;99.90;;;;;;4994036;28;20207;-92
2023/04/04 05:39:58;;;;;;;1.60;1.30;;;4.10;99.90;;;;;;4996405;28;20214;-92
2023/04/04 05:42:30;;;;;;;1.53;1.43;;;4.10;99.90;;;;;;5007154;28;20195;-94
2023/04/04 05:45:04;;;;;;;1.40;1.27;;;4.20;99.90;;;;;;5007914;28;20275;-92
2023/04/04 05:47:35;;;;;;;1.80;1.30;;;4.20;99.90;;;;;;4997153;28;20214;-91
2023/04/04 05:50:07;;;;;;;1.70;1.40;;;4.30;99.90;;;;;;5003241;28;20205;-91
2023/04/04 05:52:40;;;;;;;1.67;1.37;;;4.30;99.90;;;;;;4998169;28;20238;-91
2023/04/04 05:55:11;;;;;;;1.23;1.13;;;4.40;99.90;;;;;;4996376;28;20557;-91
2023/04/04 05:57:49;;;;;;;1.70;1.50;;;4.40;99.90;;;;;;4996308;28;20219;-92
2023/04/04 06:00:23;;;;;;;1.30;1.20;;;4.40;99.90;;;;;;4999077;28;20211;-92
2023/04/04 06:02:58;;;;;;;1.20;1.10;;;4.50;99.90;;;;;;4996090;28;20264;-92
2023/04/04 06:05:31;;;;;;;2.13;1.20;;;4.40;99.90;;;;;;4995071;28;20406;-92
2023/04/04 06:08:03;;;;;;;1.47;1.10;;;4.30;99.90;;;;;;4981729;28;20214;-91
2023/04/04 06:10:34;;;;;;;1.37;1.20;;;4.30;99.90;;;;;;4994489;28;20260;-91
2023/04/04 06:13:07;;;;;;;1.50;1.30;;;4.30;99.90;;;;;;4993797;28;20248;-91
2023/04/04 06:15:40;;;;;;;1.47;1.10;;;4.30;99.90;;;;;;4996274;28;20345;-93
2023/04/04 06:18:12;;;;;;;3.20;1.30;;;4.30;99.90;;;;;;4993806;28;20241;-92
2023/04/04 06:20:44;;;;;;;3.17;1.70;;;4.30;99.90;;;;;;4994123;28;20647;-93
2023/04/04 06:23:16;;;;;;;1.93;1.47;;;4.30;99.90;;;;;;4995821;28;20219;-93
2023/04/04 06:25:48;;;;;;;2.00;1.30;;;4.30;99.90;;;;;;4996512;28;20210;-93
2023/04/04 06:28:20;;;;;;;1.83;1.37;;;4.40;99.90;;;;;;4994001;28;20686;-93
2023/04/04 06:30:54;;;;;;;1.87;1.30;;;4.40;99.90;;;;;;4981754;28;20225;-91
2023/04/04 06:33:25;;;;;;;2.23;1.47;;;4.50;99.90;;;;;;4992555;28;20288;-92
2023/04/04 06:35:57;;;;;;;1.37;1.20;;;4.60;99.90;;;;;;4995488;28;20206;-93
2023/04/04 06:38:30;;;;;;;1.40;1.30;;;4.70;99.90;;;;;;4993139;28;20681;-92
2023/04/04 06:41:02;;;;;;;2.67;1.70;;;4.70;99.90;;;;;;4990395;28;20566;-93
2023/04/04 06:43:34;;;;;;;1.20;1.10;;;4.80;99.90;;;;;;4995622;28;20276;-92
2023/04/04 06:46:08;;;;;;;1.20;1.10;;;4.80;99.90;;;;;;4984495;28;20612;-92
2023/04/04 06:48:40;;;;;;;1.00;1.00;;;4.70;99.90;;;;;;4996601;28;20322;-92
2023/04/04 06:51:12;;;;;;;0.70;0.70;;;4.80;99.90;;;;;;4983989;28;20343;-91
2023/04/04 06:53:43;;;;;;;0.50;0.50;;;4.70;99.90;;;;;;4989677;28;20203;-90
2023/04/04 06:56:15;;;;;;;0.83;0.80;;;4.70;99.90;;;;;;4983051;28;20206;-93
2023/04/04 06:58:46;;;;;;;0.67;0.50;;;4.60;99.90;;;;;;4984468;28;20215;-91
2023/04/04 07:01:20;;;;;;;0.53;0.53;;;4.60;99.90;;;;;;5007117;28;20209;-92
2023/04/04 07:03:54;;;;;;;1.33;0.70;;;4.60;99.90;;;;;;5004537;28;20266;-91
2023/04/04 07:06:28;;;;;;;3.70;0.77;;;4.60;99.90;;;;;;4995520;28;20217;-91
2023/04/04 07:09:02;;;;;;;1.40;0.40;;;4.40;99.90;;;;;;4992357;28;20261;-92
2023/04/04 07:11:36;;;;;;;1.60;0.50;;;4.20;99.90;;;;;;4975802;28;20642;-92
2023/04/04 07:14:08;;;;;;;1.40;0.50;;;3.80;99.90;;;;;;4989884;28;20288;-91
2023/04/04 07:16:42;;;;;;;0.70;0.57;;;3.50;99.90;;;;;;4975274;28;20214;-92
2023/04/04 07:19:13;;;;;;;0.83;0.40;;;3.30;99.90;;;;;;4975767;28;20648;-93
2023/04/04 07:21:45;;;;;;;2.83;0.50;;;3.10;99.90;;;;;;5014857;28;20209;-92
2023/04/04 07:24:17;;;;;;;1.90;0.50;;;3.00;99.90;;;;;;4997365;28;20214;-93
2023/04/04 07:26:48;;;;;;;0.60;0.50;;;3.00;99.90;;;;;;4983279;28;20335;-93
2023/04/04 07:29:20;;;;;;;0.60;0.50;;;3.00;99.90;;;;;;4986388;28;20195;-93
2023/04/04 07:31:55;;;;;;;5.93;1.83;;;2.90;99.90;;;;;;4991590;28;20245;-94
2023/04/04 07:34:28;;;;;;;5.27;0.70;;;2.90;99.90;;;;;;4988438;28;20288;-92
2023/04/04 07:37:00;;;;;;;0.67;0.60;;;3.00;99.90;;;;;;4995973;28;20737;-93
2023/04/04 07:39:31;;;;;;;1.80;0.77;;;3.00;99.90;;;;;;4997092;28;20218;-94
2023/04/04 07:42:03;;;;;;;0.63;0.53;;;3.00;99.90;;;;;;4995107;28;20260;-93
2023/04/04 07:44:35;;;;;;;0.60;0.60;;;2.90;99.90;;;;;;5001081;28;20214;-94
2023/04/04 07:47:09;;;;;;;0.63;0.60;;;2.80;99.90;;;;;;5017499;28;20268;-93
2023/04/04 07:49:42;;;;;;;2.97;0.60;;;2.70;99.90;;;;;;5017432;28;20225;-93
2023/04/04 07:52:14;;;;;;;1.60;0.80;;;2.80;99.90;;;;;;5037905;28;20233;-93
2023/04/04 07:54:46;;;;;;;0.90;0.60;;;2.80;99.90;;;;;;5032294;28;20621;-92
2023/04/04 07:57:18;;;;;;;1.23;0.73;;;2.80;99.90;;;;;;5025845;28;20206;-93
2023/04/04 07:59:49;;;;;;;0.70;0.70;;;2.80;99.90;;;;;;5004095;28;20286;-92
2023/04/04 08:02:24;;;;;;;1.40;0.60;;;2.90;99.90;;;;;;5019070;28;20209;-92
2023/04/04 08:04:55;;;;;;;1.07;0.70;;;2.80;99.90;;;;;;5018697;28;20296;-93
2023/04/04 08:07:27;;;;;;;1.17;0.50;;;2.70;99.90;;;;;;5020780;28;20217;-92
2023/04/04 08:09:59;;;;;;;0.83;0.60;;;2.70;99.90;;;;;;5014529;28;20210;-92
2023/04/04 08:12:31;;;;;;;1.90;0.57;;;2.70;99.90;;;;;;5000871;28;20230;-91
2023/04/04 08:15:02;;;;;;;1.23;0.70;;;2.70;99.90;;;;;;4999807;28;20210;-90
2023/04/04 08:17:38;;;;;;;3.70;0.57;;;2.70;99.90;;;;;;4998979;28;20217;-92
2023/04/04 08:20:10;;;;;;;11.47;1.83;;;2.70;99.90;;;;;;5001473;28;20252;-90
2023/04/04 08:22:43;;;;;;;1.10;0.70;;;2.60;99.90;;;;;;4990034;28;20207;-91
2023/04/04 08:25:15;;;;;;;0.57;0.50;;;2.70;99.90;;;;;;4999611;28;20214;-91
2023/04/04 08:27:46;;;;;;;1.30;0.57;;;2.60;99.90;;;;;;4979875;28;20261;-93
2023/04/04 08:30:19;;;;;;;0.50;0.50;;;2.50;99.90;;;;;;4997751;28;20253;-93
2023/04/04 08:32:53;;;;;;;1.53;0.57;;;2.50;99.90;;;;;;4999352;28;20230;-94
2023/04/04 08:35:24;;;;;;;1.03;0.50;;;2.60;99.90;;;;;;4998168;28;20230;-92
2023/04/04 08:37:56;;;;;;;1.00;0.57;;;2.60;99.90;;;;;;4996019;28;20206;-91
2023/04/04 08:40:29;;;;;;;1.80;0.60;;;2.60;99.90;;;;;;4984467;28;20210;-94
2023/04/04 08:43:04;;;;;;;1.60;0.90;;;2.50;99.90;;;;;;4996843;28;20686;-92
2023/04/04 08:45:38;;;;;;;0.70;0.53;;;2.50;99.90;;;;;;4998117;28;20206;-93
2023/04/04 08:48:13;;;;;;;1.00;0.53;;;2.50;99.90;;;;;;4994191;28;20222;-92
2023/04/04 08:50:45;;;;;;;1.37;0.60;;;2.50;99.90;;;;;;4977833;28;20277;-93
2023/04/04 08:53:18;;;;;;;1.87;0.80;;;2.50;99.90;;;;;;5009158;28;20246;-93
2023/04/04 08:55:50;;;;;;;1.90;0.60;;;2.50;99.90;;;;;;5000852;28;20205;-93
2023/04/04 08:58:21;;;;;;;1.67;0.60;;;2.40;99.90;;;;;;4996897;28;20612;-92
2023/04/04 09:00:55;;;;;;;2.03;0.57;;;2.40;99.90;;;;;;4997657;28;20289;-93
2023/04/04 09:03:31;;;;;;;1.03;0.50;;;2.40;99.90;;;;;;4997846;28;20587;-91
2023/04/04 09:06:03;;;;;;;0.37;0.37;;;2.40;99.90;;;;;;4998131;28;20213;-94
2023/04/04 09:08:35;;;;;;;0.67;0.50;;;2.40;99.90;;;;;;4995594;28;20675;-92
2023/04/04 09:11:07;;;;;;;1.27;0.70;;;2.40;99.90;;;;;;4996806;28;20707;-92
2023/04/04 09:13:40;;;;;;;1.13;0.60;;;2.40;99.90;;;;;;4996909;28;20229;-93
2023/04/04 09:16:12;;;;;;;0.97;0.70;;;2.40;99.90;;;;;;4994022;28;20211;-92
2023/04/04 09:18:47;;;;;;;1.03;0.40;;;2.40;99.90;;;;;;4977027;28;20298;-93
2023/04/04 09:21:21;;;;;;;1.53;0.60;;;2.40;99.90;;;;;;4977923;28;20233;-92
2023/04/04 09:24:00;;;;;;;1.43;0.40;;;2.40;99.90;;;;;;4977745;28;20544;-92
2023/04/04 09:26:48;;;;;;;3.03;0.40;;;2.40;99.90;;;;;;4977755;28;20198;-92
2023/04/04 09:29:20;;;;;;;1.00;0.40;;;2.40;99.90;;;;;;4977287;28;20219;-92
2023/04/04 09:31:53;;;;;;;0.40;0.40;;;2.40;99.90;;;;;;4979659;28;20207;-93
2023/04/04 09:34:27;;;;;;;0.30;0.30;;;2.40;99.90;;;;;;5003518;28;20222;-91
2023/04/04 09:36:59;;;;;;;0.30;0.30;;;2.50;99.90;;;;;;5017222;28;20210;-93
2023/04/04 09:39:31;;;;;;;0.97;0.50;;;2.50;99.90;;;;;;5017496;28;20190;-93
2023/04/04 09:42:03;;;;;;;0.73;0.57;;;2.50;99.90;;;;;;5037303;28;20232;-92
2023/04/04 09:44:35;;;;;;;0.70;0.50;;;2.50;99.90;;;;;;5019001;28;20252;-95
2023/04/04 09:47:26;;;;;;;0.30;0.30;;;2.60;99.90;;;;;;5018276;28;20202;-91
2023/04/04 09:50:04;;;;;;;1.17;0.43;;;2.50;99.90;;;;;;4983653;28;20207;-92
2023/04/04 09:52:37;;;;;;;0.80;0.40;;;2.50;99.90;;;;;;4996663;28;20202;-92
2023/04/04 09:55:09;;;;;;;0.43;0.43;;;2.60;99.90;;;;;;5010398;28;20238;-92
2023/04/04 09:57:43;;;;;;;1.03;0.60;;;2.60;99.90;;;;;;5008254;28;20194;-93
2023/04/04 10:00:21;;;;;;;1.23;0.60;;;2.60;99.90;;;;;;4995425;28;20207;-92
2023/04/04 10:02:57;;;;;;;0.60;0.60;;;2.60;99.90;;;;;;4977566;28;20238;-92
2023/04/04 10:05:31;;;;;;;0.93;0.67;;;2.60;99.90;;;;;;4977255;28;20213;-91
2023/04/04 10:08:14;;;;;;;0.50;0.50;;;2.60;99.90;;;;;;4976021;28;20619;-91
2023/04/04 10:10:53;;;;;;;0.53;0.50;;;2.70;99.90;;;;;;4996595;28;20205;-91
2023/04/04 10:13:42;;;;;;;0.60;0.50;;;2.70;99.90;;;;;;4994988;28;20284;-92
2023/04/04 10:16:14;;;;;;;0.40;0.40;;;2.60;99.90;;;;;;4996266;28;20229;-92
2023/04/04 10:18:46;;;;;;;0.60;0.50;;;2.60;99.90;;;;;;5003698;28;20222;-90
2023/04/04 10:21:20;;;;;;;1.10;0.40;;;2.60;99.90;;;;;;4996782;28;20218;-91
2023/04/04 10:23:52;;;;;;;0.40;0.40;;;2.60;99.90;;;;;;4996258;28;20630;-91
2023/04/04 10:26:25;;;;;;;0.43;0.30;;;2.60;99.90;;;;;;4996969;28;20214;-92
2023/04/04 10:28:57;;;;;;;2.37;0.40;;;2.60;99.90;;;;;;4995549;28;20207;-91
2023/04/04 10:31:29;;;;;;;0.27;0.27;;;2.60;99.90;;;;;;4996996;28;20221;-91
2023/04/04 10:34:13;;;;;;;0.30;0.30;;;2.60;99.90;;;;;;4997246;28;20229;-93
2023/04/04 10:36:52;;;;;;;0.40;0.40;;;2.50;99.90;;;;;;4997374;28;20206;-92
2023/04/04 10:39:27;;;;;;;0.50;0.40;;;2.50;99.90;;;;;;5012006;28;20227;-94
2023/04/04 10:42:00;;;;;;;0.30;0.30;;;2.60;99.90;;;;;;5018035;28;20339;-92
2023/04/04 10:44:33;;;;;;;0.40;0.37;;;2.50;99.90;;;;;;5016310;28;20190;-93
2023/04/04 10:47:14;;;;;;;1.20;0.40;;;2.50;99.90;;;;;;5015585;28;20198;-92
2023/04/04 10:49:47;;;;;;;1.60;0.50;;;2.50;99.90;;;;;;5018027;28;20222;-93
2023/04/04 10:52:22;;;;;;;0.53;0.40;;;2.60;99.90;;;;;;5028511;28;20233;-92
2023/04/04 10:54:56;;;;;;;0.67;0.67;;;2.60;99.90;;;;;;5009452;28;20232;-91
2023/04/04 10:57:28;;;;;;;0.70;0.70;;;2.60;99.90;;;;;;4996087;28;20217;-92
2023/04/04 11:00:03;;;;;;;0.63;0.63;;;2.60;99.90;;;;;;4996283;28;20206;-92
2023/04/04 11:02:56;;;;;;;0.60;0.60;;;2.60;99.90;;;;;;4989402;28;20209;-92
2023/04/04 11:05:32;;;;;;;0.70;0.57;;;2.60;99.90;;;;;;4993075;28;20663;-92
2023/04/04 11:08:07;;;;;;;0.50;0.50;;;2.60;99.90;;;;;;4995305;28;20217;-92
2023/04/04 11:10:39;;;;;;;1.10;0.60;;;2.60;99.90;;;;;;4995791;28;20217;-92
2023/04/04 11:13:12;;;;;;;0.80;0.80;;;2.60;99.90;;;;;;4995628;28;20272;-92
2023/04/04 11:15:56;;;;;;;1.37;1.10;;;2.60;99.90;;;;;;4998811;28;20281;-91
2023/04/04 11:19:00;;;;;;;1.00;0.90;;;2.60;99.90;;;;;;4998786;28;20709;-90
2023/04/04 11:21:34;;;;;;;1.37;0.80;;;2.60;99.90;;;;;;4958742;29;20615;-91
2023/04/04 11:24:20;;;;;;;0.90;0.87;;;2.60;99.90;;;;;;4978453;28;20210;-91
2023/04/04 11:26:52;;;;;;;4.37;0.90;;;2.50;99.90;;;;;;4980496;28;20664;-91
2023/04/04 11:29:53;;;;;;;1.33;0.83;;;2.40;99.90;;;;;;4978067;28;20211;-92
2023/04/04 11:32:44;;;;;;;0.80;0.80;;;2.40;99.90;;;;;;4979665;28;20364;-92
2023/04/04 11:35:39;;;;;;;0.60;0.60;;;2.40;99.90;;;;;;4979603;28;20234;-91
2023/04/04 11:38:17;;;;;;;0.53;0.53;;;2.20;99.90;;;;;;4977347;28;20206;-91
2023/04/04 11:40:57;;;;;;;9.83;0.73;;;2.20;99.90;;;;;;4978904;28;20219;-91
2023/04/04 11:43:29;;;;;;;0.43;0.43;;;2.20;99.90;;;;;;4979047;28;20202;-92
2023/04/04 11:46:09;;;;;;;0.40;0.33;;;2.10;99.90;;;;;;4978606;28;20282;-91
2023/04/04 11:48:41;;;;;;;1.13;0.70;;;2.10;99.90;;;;;;4985880;28;20214;-92
2023/04/04 11:51:13;;;;;;;0.70;0.70;;;2.00;99.90;;;;;;4998278;28;20209;-92
2023/04/04 11:53:45;;;;;;;0.77;0.77;;;2.00;99.90;;;;;;4982674;28;20210;-92
2023/04/04 11:56:22;;;;;;;0.70;0.70;;;2.00;99.90;;;;;;5007758;28;20260;-92
2023/04/04 11:58:54;;;;;;;0.87;0.50;;;2.00;99.90;;;;;;5008300;28;20219;-90
2023/04/04 12:01:40;;;;;;;0.50;0.50;;;2.10;99.90;;;;;;4982875;28;20298;-92
2023/04/04 12:04:13;;;;;;;0.40;0.40;;;2.20;99.90;;;;;;4982791;28;20232;-90
2023/04/04 12:06:45;;;;;;;0.60;0.60;;;2.10;99.90;;;;;;4983049;28;20293;-92
2023/04/04 12:09:19;;;;;;;1.60;0.40;;;2.10;99.90;;;;;;4981176;28;20203;-91
2023/04/04 12:11:52;;;;;;;0.97;0.60;;;2.10;99.90;;;;;;4996239;28;20202;-92
2023/04/04 12:14:26;;;;;;;0.40;0.40;;;2.10;99.90;;;;;;4978337;28;20700;-92
2023/04/04 12:16:58;;;;;;;0.50;0.30;;;2.10;99.90;;;;;;4977782;28;20215;-91
2023/04/04 12:19:30;;;;;;;0.40;0.30;;;2.10;99.90;;;;;;4977787;28;20226;-91
2023/04/04 12:22:02;;;;;;;0.40;0.40;;;2.10;99.90;;;;;;4978774;28;20551;-91
2023/04/04 12:24:35;;;;;;;1.27;0.47;;;2.20;99.90;;;;;;4982317;28;20213;-91
2023/04/04 12:27:09;;;;;;;0.30;0.30;;;2.20;99.90;;;;;;4986678;28;20199;-92
2023/04/04 12:29:44;;;;;;;0.30;0.30;;;2.20;99.90;;;;;;4977635;28;20206;-90
2023/04/04 12:32:16;;;;;;;0.90;0.40;;;2.20;99.90;;;;;;4990247;28;20205;-91
2023/04/04 12:34:50;;;;;;;0.47;0.47;;;2.30;99.90;;;;;;4997851;28;20226;-90
2023/04/04 12:37:25;;;;;;;0.60;0.30;;;2.40;99.90;;;;;;4997422;28;20203;-92
2023/04/04 12:39:58;;;;;;;0.40;0.40;;;2.50;99.90;;;;;;4996808;28;20210;-92
2023/04/04 12:42:33;;;;;;;0.20;0.20;;;2.50;99.90;;;;;;4996844;28;20272;-90
2023/04/04 12:45:05;;;;;;;0.43;0.43;;;2.60;99.90;;;;;;4997698;28;20209;-92
2023/04/04 12:47:39;;;;;;;1.43;0.57;;;2.60;99.90;;;;;;4996965;28;20570;-91
2023/04/04 12:50:25;;;;;;;0.37;0.30;;;2.60;99.90;;;;;;4980515;28;20214;-91
2023/04/04 12:52:56;;;;;;;1.90;0.50;;;2.70;99.90;;;;;;4978593;28;20685;-89
2023/04/04 12:55:49;;;;;;;1.63;0.43;;;2.70;99.90;;;;;;4978180;28;20235;-91
2023/04/04 12:58:25;;;;;;;0.97;0.60;;;2.70;99.90;;;;;;4997442;28;20219;-91
2023/04/04 13:01:00;;;;;;;0.83;0.50;;;2.70;99.90;;;;;;4998660;28;20210;-92
2023/04/04 13:03:32;;;;;;;1.37;0.60;;;2.70;99.90;;;;;;4999701;28;20212;-91
2023/04/04 13:06:04;;;;;;;1.07;0.67;;;2.70;99.90;;;;;;4999467;28;20559;-92
2023/04/04 13:08:35;;;;;;;0.53;0.50;;;2.60;99.90;;;;;;4997789;28;20221;-90
2023/04/04 13:11:07;;;;;;;1.67;0.90;;;2.60;99.90;;;;;;5004066;28;20249;-91
2023/04/04 13:13:42;;;;;;;0.73;0.73;;;2.60;99.90;;;;;;4996821;28;20252;-91
2023/04/04 13:16:15;;;;;;;3.00;1.00;;;2.50;99.90;;;;;;4997178;28;20248;-92
2023/04/04 13:18:49;;;;;;;1.00;0.90;;;2.40;99.90;;;;;;4995024;28;20595;-90
2023/04/04 13:21:21;;;;;;;1.13;1.03;;;2.30;99.90;;;;;;4996633;28;20205;-89
2023/04/04 13:23:53;;;;;;;2.57;0.90;;;2.30;99.90;;;;;;4996220;28;20825;-89
2023/04/04 13:26:26;;;;;;;1.90;1.47;;;2.20;99.90;;;;;;4997497;28;20237;-91
2023/04/04 13:28:59;;;;;;;1.30;1.20;;;2.20;99.90;;;;;;4995762;28;20361;-90